Time,TemperatureF,DewpointF,PressureIn,WindDirection,WindDirectionDegrees,WindSpeedMPH,WindSpeedGustMPH,Humidity,HourlyPrecipIn,Conditions,Clouds,dailyrainin,SoftwareType,DateUTC
2013-04-25 00:01:00,32.0,32.0,29.93,SSW,200,8.0,8.0,100,0.00,,,0.00,VWS V14.01,2013-04-25 04:01:00,
2013-04-25 00:25:00,32.0,32.0,29.93,SSW,200,6.0,6.0,100,0.00,,,0.00,VWS V14.01,2013-04-25 04:25:00,
2013-04-25 00:28:00,32.0,32.0,29.93,SSW,200,6.0,8.0,100,0.00,,,0.00,VWS V14.01,2013-04-25 04:28:00,
2013-04-25 00:33:00,32.0,32.0,29.93,SSW,200,6.0,6.0,100,0.00,,,0.00,VWS V14.01,2013-04-25 04:33:00,
2013-04-25 00:50:00,32.0,32.0,29.93,SSW,200,6.0,6.0,100,0.00,,,0.00,VWS V14.01,2013-04-25 04:50:00,
2013-04-25 00:56:00,32.0,32.0,29.91,South,190,8.0,8.0,100,0.00,,,0.00,VWS V14.01,2013-04-25 04:56:00,
2013-04-25 00:59:00,32.0,32.0,29.91,South,190,8.0,8.0,100,0.00,,,0.00,VWS V14.01,2013-04-25 04:59:00,
2013-04-25 01:04:00,32.0,32.0,29.91,South,190,8.0,8.0,100,0.00,,,0.00,VWS V14.01,2013-04-25 05:04:00,
2013-04-25 01:12:00,32.0,32.0,29.91,South,190,8.0,8.0,100,0.00,,,0.00,VWS V14.01,2013-04-25 05:12:00,
2013-04-25 01:18:00,32.0,32.0,29.91,South,190,8.0,8.0,100,0.00,,,0.00,VWS V14.01,2013-04-25 05:18:00,
2013-04-25 01:34:00,32.0,32.0,29.91,South,190,8.0,8.0,100,0.00,,,0.00,VWS V14.01,2013-04-25 05:34:00,
2013-04-25 01:44:00,32.0,32.0,29.91,South,190,8.0,8.0,100,0.00,,,0.00,VWS V14.01,2013-04-25 05:44:00,
2013-04-25 01:51:00,32.0,32.0,29.91,South,190,8.0,8.0,100,0.00,,,0.00,VWS V14.01,2013-04-25 05:51:00,
2013-04-25 01:56:00,32.0,32.0,29.91,South,190,8.0,8.0,100,0.00,,,0.00,VWS V14.01,2013-04-25 05:56:00,
2013-04-25 02:01:00,32.0,32.0,29.91,SSW,200,8.0,8.0,100,0.00,,,0.00,VWS V14.01,2013-04-25 06:01:00,
2013-04-25 02:26:00,32.0,32.0,29.91,SSW,200,8.0,8.0,100,0.00,,,0.00,VWS V14.01,2013-04-25 06:26:00,
2013-04-25 02:40:00,32.0,32.0,29.91,SSW,200,8.0,8.0,100,0.00,,,0.00,VWS V14.01,2013-04-25 06:40:00,
2013-04-25 02:45:00,32.0,32.0,29.91,SSW,200,8.0,8.0,100,0.00,,,0.00,VWS V14.01,2013-04-25 06:45:00,
2013-04-25 02:51:00,32.0,32.0,29.91,SSW,200,8.0,8.0,100,0.00,,,0.00,VWS V14.01,2013-04-25 06:51:00,
2013-04-25 02:56:00,32.0,32.0,29.91,SSW,200,8.0,8.0,100,0.00,,,0.00,VWS V14.01,2013-04-25 06:56:00,
2013-04-25 03:01:00,32.0,32.0,29.91,West,260,4.0,4.0,100,0.00,,,0.00,VWS V14.01,2013-04-25 07:01:00,
2013-04-25 03:31:00,32.0,32.0,29.91,West,260,4.0,4.0,100,0.00,,,0.00,VWS V14.01,2013-04-25 07:31:00,
2013-04-25 03:41:00,32.0,32.0,29.91,West,260,4.0,4.0,100,0.00,,,0.00,VWS V14.01,2013-04-25 07:41:00,
2013-04-25 03:42:00,32.0,32.0,29.90,North,0,4.0,4.0,100,0.00,,,0.00,VWS V14.01,2013-04-25 07:42:00,
2013-04-25 03:46:00,32.0,32.0,29.90,North,0,4.0,4.0,100,0.00,,,0.00,VWS V14.01,2013-04-25 07:46:00,
2013-04-25 03:51:00,32.0,32.0,29.90,North,0,4.0,4.0,100,0.00,,,0.00,VWS V14.01,2013-04-25 07:51:00,
2013-04-25 03:56:00,32.0,32.0,29.91,West,260,4.0,4.0,100,0.00,,,0.00,VWS V14.01,2013-04-25 07:56:00,
2013-04-25 03:59:00,32.0,32.0,29.91,West,260,4.0,4.0,100,0.00,,,0.00,VWS V14.01,2013-04-25 07:59:00,
2013-04-25 04:04:00,32.0,32.0,29.91,West,260,4.0,4.0,100,0.00,,,0.00,VWS V14.01,2013-04-25 08:04:00,
2013-04-25 04:20:00,32.0,32.0,29.91,West,260,4.0,4.0,100,0.00,,,0.00,VWS V14.01,2013-04-25 08:20:00,
2013-04-25 04:37:00,32.0,32.0,29.91,West,260,4.0,4.0,100,0.00,,,0.00,VWS V14.01,2013-04-25 08:37:00,
2013-04-25 04:51:00,32.0,32.0,29.91,West,260,4.0,4.0,100,0.00,,,0.00,VWS V14.01,2013-04-25 08:51:00,
2013-04-25 04:56:00,32.0,32.0,29.91,West,260,4.0,4.0,100,0.00,,,0.00,VWS V14.01,2013-04-25 08:56:00,
2013-04-25 05:01:00,32.0,32.0,29.93,West,270,5.0,5.0,100,0.00,,,0.00,VWS V14.01,2013-04-25 09:01:00,
2013-04-25 05:08:00,32.0,32.0,29.93,West,270,5.0,5.0,100,0.00,,,0.00,VWS V14.01,2013-04-25 09:08:00,
2013-04-25 05:18:00,32.0,32.0,29.93,West,270,5.0,5.0,100,0.00,,,0.00,VWS V14.01,2013-04-25 09:18:00,
2013-04-25 05:36:00,32.0,32.0,29.93,West,270,5.0,5.0,100,0.00,,,0.00,VWS V14.01,2013-04-25 09:36:00,
2013-04-25 05:45:00,32.0,32.0,29.93,West,270,5.0,5.0,100,0.00,,,0.00,VWS V14.01,2013-04-25 09:45:00,
2013-04-25 05:52:00,32.0,32.0,29.93,West,270,5.0,5.0,100,0.00,,,0.00,VWS V14.01,2013-04-25 09:52:00,
2013-04-25 05:56:00,32.0,32.0,29.97,WNW,290,4.0,4.0,100,0.00,,,0.00,VWS V14.01,2013-04-25 09:56:00,
2013-04-25 05:57:00,32.0,32.0,29.93,West,270,5.0,5.0,100,0.00,,,0.00,VWS V14.01,2013-04-25 09:57:00,
2013-04-25 06:02:00,32.0,32.0,29.97,WNW,290,4.0,4.0,100,0.00,,,0.00,VWS V14.01,2013-04-25 10:02:00,
2013-04-25 06:07:00,32.0,32.0,29.98,NW,310,13.0,13.0,100,0.00,,,0.00,VWS V14.01,2013-04-25 10:07:00,
2013-04-25 06:10:00,32.0,32.0,29.98,NW,310,13.0,13.0,100,0.00,,,0.00,VWS V14.01,2013-04-25 10:10:00,
2013-04-25 06:15:00,32.0,32.0,29.98,NW,310,13.0,13.0,100,0.00,,,0.00,VWS V14.01,2013-04-25 10:15:00,
2013-04-25 06:23:00,32.0,32.0,29.98,NW,310,13.0,13.0,100,0.00,,,0.00,VWS V14.01,2013-04-25 10:23:00,
2013-04-25 06:30:00,32.0,32.0,29.98,NW,310,13.0,13.0,100,0.00,,,0.00,VWS V14.01,2013-04-25 10:30:00,
2013-04-25 06:43:00,32.0,32.0,29.98,NW,310,13.0,13.0,100,0.00,,,0.00,VWS V14.01,2013-04-25 10:43:00,
2013-04-25 06:54:00,32.0,32.0,29.98,NW,310,13.0,13.0,100,0.00,,,0.00,VWS V14.01,2013-04-25 10:54:00,
2013-04-25 06:56:00,32.0,32.0,30.01,NNW,340,20.0,20.0,100,0.00,,OVC075,0.00,VWS V14.01,2013-04-25 10:56:00,
2013-04-25 06:59:00,32.0,32.0,30.01,North,350,19.0,19.0,100,0.00,,OVC075,0.00,VWS V14.01,2013-04-25 10:59:00,
2013-04-25 07:04:00,32.0,32.0,30.01,NNW,340,20.0,20.0,100,0.00,,OVC075,0.00,VWS V14.01,2013-04-25 11:04:00,
2013-04-25 07:11:00,32.0,32.0,30.01,NNW,340,20.0,20.0,100,0.00,,OVC075,0.00,VWS V14.01,2013-04-25 11:11:00,
2013-04-25 07:24:00,32.0,32.0,30.01,NNW,340,20.0,20.0,100,0.00,,OVC075,0.00,VWS V14.01,2013-04-25 11:24:00,
2013-04-25 07:32:00,32.0,32.0,30.01,NNW,340,20.0,20.0,100,0.00,,OVC075,0.00,VWS V14.01,2013-04-25 11:32:00,
2013-04-25 07:51:00,32.0,32.0,30.01,NNW,340,20.0,20.0,100,0.00,,OVC075,0.00,VWS V14.01,2013-04-25 11:51:00,
2013-04-25 07:56:00,32.0,32.0,30.01,NNW,340,20.0,20.0,100,0.00,,OVC075,0.00,VWS V14.01,2013-04-25 11:56:00,
2013-04-25 08:01:00,32.0,32.0,30.07,NNW,340,12.0,12.0,100,0.01,,RA,0.01,VWS V14.01,2013-04-25 12:01:00,
2013-04-25 08:06:00,32.0,32.0,30.07,NNW,340,12.0,12.0,100,0.01,,RA,0.01,VWS V14.01,2013-04-25 12:06:00,
2013-04-25 08:19:00,32.0,32.0,30.07,NNW,340,12.0,12.0,100,0.01,,RA,0.01,VWS V14.01,2013-04-25 12:19:00,
2013-04-25 08:29:00,32.0,32.0,30.07,NNW,340,12.0,12.0,100,0.01,,RA,0.01,VWS V14.01,2013-04-25 12:29:00,
2013-04-25 08:36:00,32.0,32.0,30.07,NNW,340,12.0,12.0,100,0.01,,RA,0.01,VWS V14.01,2013-04-25 12:36:00,
2013-04-25 08:41:00,32.0,32.0,30.07,NNW,340,12.0,12.0,100,0.01,,RA,0.01,VWS V14.01,2013-04-25 12:41:00,
2013-04-25 08:51:00,32.0,32.0,30.07,NNW,340,12.0,12.0,100,0.01,,RA,0.01,VWS V14.01,2013-04-25 12:51:00,
2013-04-25 08:56:00,32.0,32.0,30.07,NNW,340,12.0,12.0,100,0.01,,RA,0.01,VWS V14.01,2013-04-25 12:56:00,
2013-04-25 09:01:00,48.2,37.4,30.10,NW,320,6.0,6.0,66,0.00,,OVC100,0.01,VWS V14.01,2013-04-25 13:01:00,
2013-04-25 09:08:00,48.2,37.4,30.10,NW,320,6.0,6.0,66,0.00,,OVC100,0.01,VWS V14.01,2013-04-25 13:08:00,
2013-04-25 09:28:00,48.2,37.4,30.10,NW,320,6.0,6.0,66,0.00,,OVC100,0.01,VWS V14.01,2013-04-25 13:28:00,
2013-04-25 09:40:00,48.2,37.4,30.10,NW,320,6.0,6.0,66,0.00,,OVC100,0.01,VWS V14.01,2013-04-25 13:40:00,
2013-04-25 09:52:00,48.2,37.4,30.10,NW,320,6.0,6.0,66,0.00,,OVC100,0.01,VWS V14.01,2013-04-25 13:52:00,
2013-04-25 09:56:00,51.8,35.7,30.11,NNW,330,13.0,13.0,54,0.00,,CLR,0.00,VWS V14.01,2013-04-25 13:56:00,
2013-04-25 09:57:00,48.2,37.4,30.10,NW,320,6.0,6.0,66,0.00,,OVC100,0.01,VWS V14.01,2013-04-25 13:57:00,
2013-04-25 10:02:00,51.8,35.7,30.11,NNW,330,13.0,13.0,54,0.00,,CLR,0.00,VWS V14.01,2013-04-25 14:02:00,
2013-04-25 10:08:00,51.8,35.7,30.11,NNW,330,13.0,13.0,54,0.00,,CLR,0.00,VWS V14.01,2013-04-25 14:08:00,
2013-04-25 10:14:00,51.8,35.7,30.11,NNW,330,13.0,13.0,54,0.00,,CLR,0.00,VWS V14.01,2013-04-25 14:14:00,
2013-04-25 10:51:00,51.8,35.7,30.11,NNW,330,13.0,13.0,54,0.00,,CLR,0.00,VWS V14.01,2013-04-25 14:51:00,
2013-04-25 10:56:00,51.8,35.7,30.11,NNW,330,13.0,13.0,54,0.00,,CLR,0.00,VWS V14.01,2013-04-25 14:56:00,
2013-04-25 11:01:00,55.4,33.9,30.13,North,350,12.0,12.0,44,0.00,,SCT100,0.00,VWS V14.01,2013-04-25 15:01:00,
2013-04-25 11:15:00,55.4,33.9,30.13,North,350,12.0,12.0,44,0.00,,SCT100,0.00,VWS V14.01,2013-04-25 15:15:00,
2013-04-25 11:30:00,55.4,33.9,30.13,North,350,12.0,12.0,44,0.00,,SCT100,0.00,VWS V14.01,2013-04-25 15:30:00,
2013-04-25 11:52:00,55.4,33.9,30.13,North,350,12.0,12.0,44,0.00,,SCT100,0.00,VWS V14.01,2013-04-25 15:52:00,
2013-04-25 11:56:00,57.2,31.8,30.14,WNW,300,14.0,14.0,38,0.00,,CLR,0.00,VWS V14.01,2013-04-25 15:56:00,
2013-04-25 11:57:00,55.4,33.9,30.13,North,350,12.0,12.0,44,0.00,,SCT100,0.00,VWS V14.01,2013-04-25 15:57:00,
2013-04-25 12:02:00,57.2,31.8,30.14,WNW,300,14.0,14.0,38,0.00,,CLR,0.00,VWS V14.01,2013-04-25 16:02:00,
2013-04-25 12:07:00,57.2,31.8,30.14,WNW,300,14.0,14.0,38,0.00,,CLR,0.00,VWS V14.01,2013-04-25 16:07:00,
2013-04-25 12:18:00,57.2,31.8,30.14,WNW,300,14.0,14.0,38,0.00,,CLR,0.00,VWS V14.01,2013-04-25 16:18:00,
2013-04-25 12:48:00,57.2,31.8,30.14,WNW,300,14.0,14.0,38,0.00,,CLR,0.00,VWS V14.01,2013-04-25 16:48:00,
2013-04-25 12:53:00,57.2,31.8,30.14,WNW,300,14.0,14.0,38,0.00,,CLR,0.00,VWS V14.01,2013-04-25 16:53:00,
2013-04-25 12:56:00,60.8,30.0,30.14,North,10,11.0,11.0,31,0.00,,CLR,0.00,VWS V14.01,2013-04-25 16:56:00,
2013-04-25 12:58:00,57.2,31.8,30.14,WNW,300,14.0,14.0,38,0.00,,CLR,0.00,VWS V14.01,2013-04-25 16:58:00,
2013-04-25 13:03:00,60.8,30.0,30.14,North,10,11.0,11.0,31,0.00,,CLR,0.00,VWS V14.01,2013-04-25 17:03:00,
2013-04-25 13:08:00,60.8,30.0,30.14,North,10,11.0,11.0,31,0.00,,CLR,0.00,VWS V14.01,2013-04-25 17:08:00,
2013-04-25 13:30:00,60.8,30.0,30.14,North,10,11.0,11.0,31,0.00,,CLR,0.00,VWS V14.01,2013-04-25 17:30:00,
2013-04-25 13:52:00,60.8,30.0,30.14,North,10,11.0,11.0,31,0.00,,CLR,0.00,VWS V14.01,2013-04-25 17:52:00,
2013-04-25 13:56:00,60.8,26.6,30.14,NW,320,9.0,9.0,27,0.00,,CLR,0.00,VWS V14.01,2013-04-25 17:56:00,
2013-04-25 13:57:00,60.8,30.0,30.14,North,10,11.0,11.0,31,0.00,,CLR,0.00,VWS V14.01,2013-04-25 17:57:00,
2013-04-25 14:02:00,60.8,26.6,30.14,NW,320,9.0,9.0,27,0.00,,CLR,0.00,VWS V14.01,2013-04-25 18:02:00,
2013-04-25 14:09:00,60.8,26.6,30.14,NW,320,9.0,9.0,27,0.00,,CLR,0.00,VWS V14.01,2013-04-25 18:09:00,
2013-04-25 14:21:00,60.8,26.6,30.14,NW,320,9.0,9.0,27,0.00,,CLR,0.00,VWS V14.01,2013-04-25 18:21:00,
2013-04-25 14:39:00,60.8,26.6,30.14,NW,320,9.0,9.0,27,0.00,,CLR,0.00,VWS V14.01,2013-04-25 18:39:00,
2013-04-25 14:46:00,60.8,26.6,30.14,NW,320,9.0,9.0,27,0.00,,CLR,0.00,VWS V14.01,2013-04-25 18:46:00,
2013-04-25 14:51:00,60.8,26.6,30.14,NW,320,9.0,9.0,27,0.00,,CLR,0.00,VWS V14.01,2013-04-25 18:51:00,
2013-04-25 14:56:00,60.8,26.6,30.14,NW,320,9.0,9.0,27,0.00,,CLR,0.00,VWS V14.01,2013-04-25 18:56:00,
2013-04-25 15:01:00,59.0,34.1,30.13,SW,220,8.0,8.0,39,0.00,,CLR,0.00,VWS V14.01,2013-04-25 19:01:00,
2013-04-25 15:15:00,59.0,34.1,30.13,SW,220,8.0,8.0,39,0.00,,CLR,0.00,VWS V14.01,2013-04-25 19:15:00,
2013-04-25 15:22:00,59.0,34.1,30.13,SW,220,8.0,8.0,39,0.00,,CLR,0.00,VWS V14.01,2013-04-25 19:22:00,
2013-04-25 15:35:00,59.0,34.1,30.13,SW,220,8.0,8.0,39,0.00,,CLR,0.00,VWS V14.01,2013-04-25 19:35:00,
2013-04-25 15:42:00,59.0,34.1,30.13,SW,220,8.0,8.0,39,0.00,,CLR,0.00,VWS V14.01,2013-04-25 19:42:00,
2013-04-25 15:51:00,59.0,34.1,30.13,SW,220,8.0,8.0,39,0.00,,CLR,0.00,VWS V14.01,2013-04-25 19:51:00,
2013-04-25 15:56:00,59.0,34.1,30.13,SW,220,8.0,8.0,39,0.00,,CLR,0.00,VWS V14.01,2013-04-25 19:56:00,
2013-04-25 16:01:00,57.2,35.5,30.13,WSW,240,14.0,14.0,44,0.00,,CLR,0.00,VWS V14.01,2013-04-25 20:01:00,
2013-04-25 16:21:00,57.2,35.5,30.13,WSW,240,14.0,14.0,44,0.00,,CLR,0.00,VWS V14.01,2013-04-25 20:21:00,
2013-04-25 16:28:00,57.2,35.5,30.13,WSW,240,14.0,14.0,44,0.00,,CLR,0.00,VWS V14.01,2013-04-25 20:28:00,
2013-04-25 16:43:00,57.2,35.5,30.13,WSW,240,14.0,14.0,44,0.00,,CLR,0.00,VWS V14.01,2013-04-25 20:43:00,
2013-04-25 16:52:00,57.2,35.5,30.13,WSW,240,14.0,14.0,44,0.00,,CLR,0.00,VWS V14.01,2013-04-25 20:52:00,
2013-04-25 16:56:00,57.2,30.5,30.14,West,260,14.0,14.0,36,0.00,,CLR,0.00,VWS V14.01,2013-04-25 20:56:00,
2013-04-25 16:57:00,57.2,35.5,30.13,WSW,240,14.0,14.0,44,0.00,,CLR,0.00,VWS V14.01,2013-04-25 20:57:00,
2013-04-25 17:02:00,57.2,30.5,30.14,West,260,14.0,14.0,36,0.00,,CLR,0.00,VWS V14.01,2013-04-25 21:02:00,
2013-04-25 17:10:00,57.2,30.5,30.14,West,260,14.0,14.0,36,0.00,,CLR,0.00,VWS V14.01,2013-04-25 21:10:00,
2013-04-25 17:15:00,57.2,30.5,30.14,West,260,14.0,14.0,36,0.00,,CLR,0.00,VWS V14.01,2013-04-25 21:15:00,
2013-04-25 17:20:00,57.2,30.5,30.14,West,260,14.0,14.0,36,0.00,,CLR,0.00,VWS V14.01,2013-04-25 21:20:00,
2013-04-25 17:30:00,57.2,30.5,30.14,West,260,14.0,14.0,36,0.00,,CLR,0.00,VWS V14.01,2013-04-25 21:30:00,
2013-04-25 17:40:00,57.2,30.5,30.14,West,260,14.0,14.0,36,0.00,,CLR,0.00,VWS V14.01,2013-04-25 21:40:00,
2013-04-25 17:50:00,57.2,30.5,30.14,West,260,14.0,14.0,36,0.00,,CLR,0.00,VWS V14.01,2013-04-25 21:50:00,
2013-04-25 17:55:00,57.2,30.5,30.14,West,260,14.0,14.0,36,0.00,,CLR,0.00,VWS V14.01,2013-04-25 21:55:00,
2013-04-25 17:56:00,57.2,28.4,30.15,WSW,250,9.0,9.0,33,0.00,,CLR,0.00,VWS V14.01,2013-04-25 21:56:00,
2013-04-25 18:00:00,57.2,28.4,30.15,WSW,250,9.0,14.0,33,0.00,,CLR,0.00,VWS V14.01,2013-04-25 22:00:00,
2013-04-25 18:05:00,57.2,28.4,30.15,WSW,250,9.0,9.0,33,0.00,,CLR,0.00,VWS V14.01,2013-04-25 22:05:00,
2013-04-25 18:15:00,57.2,28.4,30.15,WSW,250,9.0,9.0,33,0.00,,CLR,0.00,VWS V14.01,2013-04-25 22:15:00,
2013-04-25 18:20:00,57.2,28.4,30.15,WSW,250,9.0,9.0,33,0.00,,CLR,0.00,VWS V14.01,2013-04-25 22:20:00,
2013-04-25 18:28:00,57.2,28.4,30.15,WSW,250,9.0,9.0,33,0.00,,CLR,0.00,VWS V14.01,2013-04-25 22:28:00,
2013-04-25 18:34:00,57.2,28.4,30.15,WSW,250,9.0,9.0,33,0.00,,CLR,0.00,VWS V14.01,2013-04-25 22:34:00,
2013-04-25 18:43:00,57.2,28.4,30.15,WSW,250,9.0,9.0,33,0.00,,CLR,0.00,VWS V14.01,2013-04-25 22:43:00,
2013-04-25 18:51:00,57.2,28.4,30.15,WSW,250,9.0,9.0,33,0.00,,CLR,0.00,VWS V14.01,2013-04-25 22:51:00,
2013-04-25 18:56:00,57.2,28.4,30.15,WSW,250,9.0,9.0,33,0.00,,CLR,0.00,VWS V14.01,2013-04-25 22:56:00,
2013-04-25 19:01:00,53.6,32.2,30.17,WSW,250,8.0,8.0,44,0.00,,CLR,0.00,VWS V14.01,2013-04-25 23:01:00,
2013-04-25 19:10:00,53.6,32.2,30.17,WSW,250,8.0,8.0,44,0.00,,CLR,0.00,VWS V14.01,2013-04-25 23:10:00,
2013-04-25 19:16:00,53.6,32.2,30.17,WSW,250,8.0,8.0,44,0.00,,CLR,0.00,VWS V14.01,2013-04-25 23:16:00,
2013-04-25 19:35:00,53.6,32.2,30.17,WSW,250,8.0,8.0,44,0.00,,CLR,0.00,VWS V14.01,2013-04-25 23:35:00,
2013-04-25 19:48:00,53.6,32.2,30.17,WSW,250,8.0,8.0,44,0.00,,CLR,0.00,VWS V14.01,2013-04-25 23:48:00,
2013-04-25 19:53:00,53.6,32.2,30.17,WSW,250,8.0,8.0,44,0.00,,CLR,0.00,VWS V14.01,2013-04-25 23:53:00,
2013-04-25 19:56:00,50.0,34.0,30.19,North,0,0.0,0.0,54,0.00,,CLR,0.00,VWS V14.01,2013-04-25 23:56:00,
2013-04-25 19:58:00,53.6,32.2,30.17,WSW,250,8.0,8.0,44,0.00,,CLR,0.00,VWS V14.01,2013-04-25 23:58:00,
2013-04-25 20:03:00,50.0,34.0,30.19,North,0,0.0,0.0,54,0.00,,CLR,0.00,VWS V14.01,2013-04-26 00:03:00,
2013-04-25 20:11:00,50.0,34.0,30.19,North,0,0.0,0.0,54,0.00,,CLR,0.00,VWS V14.01,2013-04-26 00:11:00,
2013-04-25 20:16:00,50.0,34.0,30.19,North,0,0.0,0.0,54,0.00,,CLR,0.00,VWS V14.01,2013-04-26 00:16:00,
2013-04-25 20:21:00,50.0,34.0,30.19,North,0,0.0,0.0,54,0.00,,CLR,0.00,VWS V14.01,2013-04-26 00:21:00,
2013-04-25 20:26:00,50.0,34.0,30.19,North,0,0.0,0.0,54,0.00,,CLR,0.00,VWS V14.01,2013-04-26 00:26:00,
2013-04-25 20:37:00,50.0,34.0,30.19,North,0,0.0,0.0,54,0.00,,CLR,0.00,VWS V14.01,2013-04-26 00:37:00,
2013-04-25 20:49:00,50.0,34.0,30.19,North,0,0.0,0.0,54,0.00,,CLR,0.00,VWS V14.01,2013-04-26 00:49:00,
2013-04-25 20:54:00,50.0,34.0,30.19,North,0,0.0,0.0,54,0.00,,CLR,0.00,VWS V14.01,2013-04-26 00:54:00,
2013-04-25 20:56:00,46.4,37.5,30.22,North,0,0.0,0.0,71,0.00,,CLR,0.00,VWS V14.01,2013-04-26 00:56:00,
2013-04-25 20:59:00,50.0,34.0,30.19,North,0,0.0,0.0,54,0.00,,CLR,0.00,VWS V14.01,2013-04-26 00:59:00,
2013-04-25 21:04:00,46.4,37.5,30.22,North,0,0.0,0.0,71,0.00,,CLR,0.00,VWS V14.01,2013-04-26 01:04:00,
2013-04-25 21:16:00,46.4,37.5,30.22,North,0,0.0,0.0,71,0.00,,CLR,0.00,VWS V14.01,2013-04-26 01:16:00,
2013-04-25 21:21:00,46.4,37.5,30.22,North,0,0.0,0.0,71,0.00,,CLR,0.00,VWS V14.01,2013-04-26 01:21:00,
2013-04-25 21:35:00,46.4,37.5,30.22,North,0,0.0,0.0,71,0.00,,CLR,0.00,VWS V14.01,2013-04-26 01:35:00,
2013-04-25 21:47:00,46.4,37.5,30.22,North,0,0.0,0.0,71,0.00,,CLR,0.00,VWS V14.01,2013-04-26 01:47:00,
2013-04-25 21:52:00,46.4,37.5,30.22,North,0,0.0,0.0,71,0.00,,CLR,0.00,VWS V14.01,2013-04-26 01:52:00,
2013-04-25 21:56:00,44.6,34.0,30.25,North,0,0.0,0.0,66,0.00,,CLR,0.00,VWS V14.01,2013-04-26 01:56:00,
2013-04-25 21:57:00,46.4,37.5,30.22,North,0,0.0,0.0,71,0.00,,CLR,0.00,VWS V14.01,2013-04-26 01:57:00,
2013-04-25 22:02:00,44.6,34.0,30.25,North,0,0.0,0.0,66,0.00,,CLR,0.00,VWS V14.01,2013-04-26 02:02:00,
2013-04-25 22:13:00,44.6,34.0,30.25,North,0,0.0,0.0,66,0.00,,CLR,0.00,VWS V14.01,2013-04-26 02:13:00,
2013-04-25 22:26:00,44.6,34.0,30.25,North,0,0.0,0.0,66,0.00,,CLR,0.00,VWS V14.01,2013-04-26 02:26:00,
2013-04-25 22:33:00,44.6,34.0,30.25,North,0,0.0,0.0,66,0.00,,CLR,0.00,VWS V14.01,2013-04-26 02:33:00,
2013-04-25 22:41:00,44.6,34.0,30.25,North,0,0.0,0.0,66,0.00,,CLR,0.00,VWS V14.01,2013-04-26 02:41:00,
2013-04-25 22:48:00,44.6,34.0,30.25,North,0,0.0,0.0,66,0.00,,CLR,0.00,VWS V14.01,2013-04-26 02:48:00,
2013-04-25 22:53:00,44.6,34.0,30.25,North,0,0.0,0.0,66,0.00,,CLR,0.00,VWS V14.01,2013-04-26 02:53:00,
2013-04-25 22:56:00,41.0,35.6,30.25,North,0,0.0,0.0,81,0.00,,CLR,0.00,VWS V14.01,2013-04-26 02:56:00,
2013-04-25 22:58:00,44.6,34.0,30.25,North,0,0.0,0.0,66,0.00,,CLR,0.00,VWS V14.01,2013-04-26 02:58:00,
2013-04-25 23:03:00,41.0,35.6,30.25,North,0,0.0,0.0,81,0.00,,CLR,0.00,VWS V14.01,2013-04-26 03:03:00,
2013-04-25 23:30:00,41.0,35.6,30.25,North,0,0.0,0.0,81,0.00,,CLR,0.00,VWS V14.01,2013-04-26 03:30:00,
2013-04-25 23:48:00,41.0,35.6,30.25,North,0,0.0,0.0,81,0.00,,CLR,0.00,VWS V14.01,2013-04-26 03:48:00,
2013-04-25 23:53:00,41.0,35.6,30.25,North,0,0.0,0.0,81,0.00,,CLR,0.00,VWS V14.01,2013-04-26 03:53:00,
2013-04-25 23:56:00,39.2,33.9,30.27,North,0,0.0,0.0,81,0.00,,CLR,0.00,VWS V14.01,2013-04-26 03:56:00,
2013-04-25 23:58:00,41.0,35.6,30.25,North,0,0.0,0.0,81,0.00,,CLR,0.00,VWS V14.01,2013-04-26 03:58:00,